sensor_id;sensor_type;location;lat;lon;timestamp;temperature;humidity
22321;DHT22;11328;53.928;18.522;2023-05-23T00:02:14;15.20;99.90
22321;DHT22;11328;53.928;18.522;2023-05-23T00:04:42;15.20;99.90
22321;DHT22;11328;53.928;18.522;2023-05-23T00:07:10;15.10;99.90
22321;DHT22;11328;53.928;18.522;2023-05-23T00:09:37;15.10;99.90
22321;DHT22;11328;53.928;18.522;2023-05-23T00:12:04;15.10;99.90
22321;DHT22;11328;53.928;18.522;2023-05-23T00:14:32;14.90;99.90
22321;DHT22;11328;53.928;18.522;2023-05-23T00:17:01;14.90;99.90
22321;DHT22;11328;53.928;18.522;2023-05-23T00:19:28;14.80;99.90
22321;DHT22;11328;53.928;18.522;2023-05-23T00:21:55;14.80;99.90
22321;DHT22;11328;53.928;18.522;2023-05-23T00:24:24;14.70;99.90
22321;DHT22;11328;53.928;18.522;2023-05-23T00:26:51;14.70;99.90
22321;DHT22;11328;53.928;18.522;2023-05-23T00:29:18;14.60;99.90
22321;DHT22;11328;53.928;18.522;2023-05-23T00:31:45;14.60;99.90
22321;DHT22;11328;53.928;18.522;2023-05-23T00:34:14;14.40;99.90
22321;DHT22;11328;53.928;18.522;2023-05-23T00:36:43;14.50;99.90
22321;DHT22;11328;53.928;18.522;2023-05-23T00:39:13;14.50;99.90
22321;DHT22;11328;53.928;18.522;2023-05-23T00:41:46;14.40;99.90
22321;DHT22;11328;53.928;18.522;2023-05-23T00:44:18;14.40;99.90
22321;DHT22;11328;53.928;18.522;2023-05-23T00:46:52;14.30;99.90
22321;DHT22;11328;53.928;18.522;2023-05-23T00:49:22;14.30;99.90
22321;DHT22;11328;53.928;18.522;2023-05-23T00:51:50;14.10;99.90
22321;DHT22;11328;53.928;18.522;2023-05-23T00:54:23;14.10;99.90
22321;DHT22;11328;53.928;18.522;2023-05-23T00:56:53;14.00;99.90
22321;DHT22;11328;53.928;18.522;2023-05-23T00:59:23;14.00;99.90
22321;DHT22;11328;53.928;18.522;2023-05-23T01:01:54;13.90;99.90
22321;DHT22;11328;53.928;18.522;2023-05-23T01:04:23;13.90;99.90
22321;DHT22;11328;53.928;18.522;2023-05-23T01:06:54;13.90;99.90
22321;DHT22;11328;53.928;18.522;2023-05-23T01:09:27;13.80;99.90
22321;DHT22;11328;53.928;18.522;2023-05-23T01:15:06;13.90;99.90
22321;DHT22;11328;53.928;18.522;2023-05-23T01:17:58;13.90;99.90
22321;DHT22;11328;53.928;18.522;2023-05-23T01:20:49;13.90;99.90
22321;DHT22;11328;53.928;18.522;2023-05-23T01:23:40;13.80;99.90
22321;DHT22;11328;53.928;18.522;2023-05-23T01:26:32;13.90;99.90
22321;DHT22;11328;53.928;18.522;2023-05-23T01:29:39;13.80;99.90
22321;DHT22;11328;53.928;18.522;2023-05-23T01:32:09;13.80;99.90
22321;DHT22;11328;53.928;18.522;2023-05-23T01:34:39;13.90;99.90
22321;DHT22;11328;53.928;18.522;2023-05-23T01:37:09;13.80;99.90
22321;DHT22;11328;53.928;18.522;2023-05-23T01:39:37;13.80;99.90
22321;DHT22;11328;53.928;18.522;2023-05-23T01:42:05;13.70;99.90
22321;DHT22;11328;53.928;18.522;2023-05-23T01:44:33;13.60;99.90
22321;DHT22;11328;53.928;18.522;2023-05-23T01:47:10;13.70;99.90
22321;DHT22;11328;53.928;18.522;2023-05-23T01:49:40;13.50;99.90
22321;DHT22;11328;53.928;18.522;2023-05-23T01:52:10;13.50;99.90
22321;DHT22;11328;53.928;18.522;2023-05-23T01:54:39;13.50;99.90
22321;DHT22;11328;53.928;18.522;2023-05-23T01:57:08;13.40;99.90
22321;DHT22;11328;53.928;18.522;2023-05-23T01:59:36;13.30;99.90
22321;DHT22;11328;53.928;18.522;2023-05-23T02:02:04;13.40;99.90
22321;DHT22;11328;53.928;18.522;2023-05-23T02:04:32;13.30;99.90
22321;DHT22;11328;53.928;18.522;2023-05-23T02:06:59;13.20;99.90
22321;DHT22;11328;53.928;18.522;2023-05-23T02:09:26;13.20;99.90
22321;DHT22;11328;53.928;18.522;2023-05-23T02:11:53;13.20;99.90
22321;DHT22;11328;53.928;18.522;2023-05-23T02:14:21;13.20;99.90
22321;DHT22;11328;53.928;18.522;2023-05-23T02:16:49;13.20;99.90
22321;DHT22;11328;53.928;18.522;2023-05-23T02:19:19;13.10;99.90
22321;DHT22;11328;53.928;18.522;2023-05-23T02:21:46;13.00;99.90
22321;DHT22;11328;53.928;18.522;2023-05-23T02:24:13;13.00;99.90
22321;DHT22;11328;53.928;18.522;2023-05-23T02:26:40;13.00;99.90
22321;DHT22;11328;53.928;18.522;2023-05-23T02:29:07;13.00;99.90
22321;DHT22;11328;53.928;18.522;2023-05-23T02:31:35;13.00;99.90
22321;DHT22;11328;53.928;18.522;2023-05-23T02:34:02;13.00;99.90
22321;DHT22;11328;53.928;18.522;2023-05-23T02:36:29;13.00;99.90
22321;DHT22;11328;53.928;18.522;2023-05-23T02:38:58;12.90;99.90
22321;DHT22;11328;53.928;18.522;2023-05-23T02:41:26;12.90;99.90
22321;DHT22;11328;53.928;18.522;2023-05-23T02:43:53;12.90;99.90
22321;DHT22;11328;53.928;18.522;2023-05-23T02:46:20;12.90;99.90
22321;DHT22;11328;53.928;18.522;2023-05-23T02:48:47;13.00;99.90
22321;DHT22;11328;53.928;18.522;2023-05-23T02:51:14;12.90;99.90
22321;DHT22;11328;53.928;18.522;2023-05-23T02:53:41;12.90;99.90
22321;DHT22;11328;53.928;18.522;2023-05-23T02:56:09;12.90;99.90
22321;DHT22;11328;53.928;18.522;2023-05-23T02:58:36;12.80;99.90
22321;DHT22;11328;53.928;18.522;2023-05-23T03:01:03;12.70;99.90
22321;DHT22;11328;53.928;18.522;2023-05-23T03:03:33;12.70;99.90
22321;DHT22;11328;53.928;18.522;2023-05-23T03:06:02;12.70;99.90
22321;DHT22;11328;53.928;18.522;2023-05-23T03:08:30;12.70;99.90
22321;DHT22;11328;53.928;18.522;2023-05-23T03:10:58;12.70;99.90
22321;DHT22;11328;53.928;18.522;2023-05-23T03:13:25;12.80;99.90
22321;DHT22;11328;53.928;18.522;2023-05-23T03:15:52;12.70;99.90
22321;DHT22;11328;53.928;18.522;2023-05-23T03:18:19;12.80;99.90
22321;DHT22;11328;53.928;18.522;2023-05-23T03:20:46;12.90;99.90
22321;DHT22;11328;53.928;18.522;2023-05-23T03:23:14;12.90;99.90
22321;DHT22;11328;53.928;18.522;2023-05-23T03:25:42;13.00;99.90
22321;DHT22;11328;53.928;18.522;2023-05-23T03:28:09;13.10;99.90
22321;DHT22;11328;53.928;18.522;2023-05-23T03:30:38;13.10;99.90
22321;DHT22;11328;53.928;18.522;2023-05-23T03:33:05;13.10;99.90
22321;DHT22;11328;53.928;18.522;2023-05-23T03:35:35;13.00;99.90
22321;DHT22;11328;53.928;18.522;2023-05-23T03:38:02;13.10;99.90
22321;DHT22;11328;53.928;18.522;2023-05-23T03:40:30;13.00;99.90
22321;DHT22;11328;53.928;18.522;2023-05-23T03:43:04;13.00;99.90
22321;DHT22;11328;53.928;18.522;2023-05-23T03:45:32;13.10;99.90
22321;DHT22;11328;53.928;18.522;2023-05-23T03:48:00;13.30;99.90
22321;DHT22;11328;53.928;18.522;2023-05-23T03:50:27;13.40;99.90
22321;DHT22;11328;53.928;18.522;2023-05-23T03:52:54;13.50;99.90
22321;DHT22;11328;53.928;18.522;2023-05-23T03:55:22;13.60;99.90
22321;DHT22;11328;53.928;18.522;2023-05-23T03:57:51;13.70;99.90
22321;DHT22;11328;53.928;18.522;2023-05-23T04:00:18;13.80;99.90
22321;DHT22;11328;53.928;18.522;2023-05-23T04:02:45;13.80;99.90
22321;DHT22;11328;53.928;18.522;2023-05-23T04:05:13;13.90;99.90
22321;DHT22;11328;53.928;18.522;2023-05-23T04:07:40;14.00;99.90
22321;DHT22;11328;53.928;18.522;2023-05-23T04:10:08;14.00;99.90
22321;DHT22;11328;53.928;18.522;2023-05-23T04:12:36;14.10;99.90
22321;DHT22;11328;53.928;18.522;2023-05-23T04:15:07;14.10;99.90
22321;DHT22;11328;53.928;18.522;2023-05-23T04:17:36;14.10;99.90
22321;DHT22;11328;53.928;18.522;2023-05-23T04:20:08;14.20;99.90
22321;DHT22;11328;53.928;18.522;2023-05-23T04:22:36;14.40;99.90
22321;DHT22;11328;53.928;18.522;2023-05-23T04:25:04;14.40;99.90
22321;DHT22;11328;53.928;18.522;2023-05-23T04:27:32;14.60;99.90
22321;DHT22;11328;53.928;18.522;2023-05-23T04:30:00;14.70;99.90
22321;DHT22;11328;53.928;18.522;2023-05-23T04:32:27;14.90;99.90
22321;DHT22;11328;53.928;18.522;2023-05-23T04:34:55;15.00;99.90
22321;DHT22;11328;53.928;18.522;2023-05-23T04:37:22;15.20;99.90
22321;DHT22;11328;53.928;18.522;2023-05-23T04:39:52;15.30;99.90
22321;DHT22;11328;53.928;18.522;2023-05-23T04:42:19;15.40;99.90
22321;DHT22;11328;53.928;18.522;2023-05-23T04:44:53;15.50;99.90
22321;DHT22;11328;53.928;18.522;2023-05-23T04:47:23;15.70;99.90
22321;DHT22;11328;53.928;18.522;2023-05-23T04:49:54;15.80;99.90
22321;DHT22;11328;53.928;18.522;2023-05-23T04:52:23;15.90;99.90
22321;DHT22;11328;53.928;18.522;2023-05-23T04:54:51;16.00;99.90
22321;DHT22;11328;53.928;18.522;2023-05-23T04:57:19;16.20;99.90
22321;DHT22;11328;53.928;18.522;2023-05-23T04:59:47;16.20;99.90
22321;DHT22;11328;53.928;18.522;2023-05-23T05:02:15;16.40;99.90
22321;DHT22;11328;53.928;18.522;2023-05-23T05:04:42;16.50;99.90
22321;DHT22;11328;53.928;18.522;2023-05-23T05:07:09;16.70;99.90
22321;DHT22;11328;53.928;18.522;2023-05-23T05:09:36;16.80;99.90
22321;DHT22;11328;53.928;18.522;2023-05-23T05:12:03;17.00;99.90
22321;DHT22;11328;53.928;18.522;2023-05-23T05:14:31;17.20;99.90
22321;DHT22;11328;53.928;18.522;2023-05-23T05:16:58;17.30;99.90
22321;DHT22;11328;53.928;18.522;2023-05-23T05:19:25;17.40;99.90
22321;DHT22;11328;53.928;18.522;2023-05-23T05:21:52;17.60;99.90
22321;DHT22;11328;53.928;18.522;2023-05-23T05:24:19;17.80;99.90
22321;DHT22;11328;53.928;18.522;2023-05-23T05:26:48;18.10;99.90
22321;DHT22;11328;53.928;18.522;2023-05-23T05:29:15;18.40;99.90
22321;DHT22;11328;53.928;18.522;2023-05-23T05:31:42;18.60;99.90
22321;DHT22;11328;53.928;18.522;2023-05-23T05:34:11;18.80;99.90
22321;DHT22;11328;53.928;18.522;2023-05-23T05:36:39;19.10;99.90
22321;DHT22;11328;53.928;18.522;2023-05-23T05:39:13;19.20;99.90
22321;DHT22;11328;53.928;18.522;2023-05-23T05:41:41;19.30;99.90
22321;DHT22;11328;53.928;18.522;2023-05-23T05:44:09;19.50;99.90
22321;DHT22;11328;53.928;18.522;2023-05-23T05:46:36;19.80;99.90
22321;DHT22;11328;53.928;18.522;2023-05-23T05:49:03;20.10;99.90
22321;DHT22;11328;53.928;18.522;2023-05-23T05:51:30;20.30;99.90
22321;DHT22;11328;53.928;18.522;2023-05-23T05:53:57;20.50;99.90
22321;DHT22;11328;53.928;18.522;2023-05-23T05:56:25;20.70;99.90
22321;DHT22;11328;53.928;18.522;2023-05-23T05:58:53;20.90;99.90
22321;DHT22;11328;53.928;18.522;2023-05-23T06:01:21;21.00;99.90
22321;DHT22;11328;53.928;18.522;2023-05-23T06:03:49;21.20;99.90
22321;DHT22;11328;53.928;18.522;2023-05-23T06:06:16;21.40;99.90
22321;DHT22;11328;53.928;18.522;2023-05-23T06:08:43;21.60;99.90
22321;DHT22;11328;53.928;18.522;2023-05-23T06:11:11;21.90;99.90
22321;DHT22;11328;53.928;18.522;2023-05-23T06:13:38;21.90;99.90
22321;DHT22;11328;53.928;18.522;2023-05-23T06:16:05;22.00;99.90
22321;DHT22;11328;53.928;18.522;2023-05-23T06:18:35;22.20;99.90
22321;DHT22;11328;53.928;18.522;2023-05-23T06:21:02;22.50;99.90
22321;DHT22;11328;53.928;18.522;2023-05-23T06:23:29;22.70;99.90
22321;DHT22;11328;53.928;18.522;2023-05-23T06:25:57;22.80;99.90
22321;DHT22;11328;53.928;18.522;2023-05-23T06:28:25;22.90;99.90
22321;DHT22;11328;53.928;18.522;2023-05-23T06:30:52;23.10;99.90
22321;DHT22;11328;53.928;18.522;2023-05-23T06:33:19;23.20;99.90
22321;DHT22;11328;53.928;18.522;2023-05-23T06:35:47;23.40;99.50
22321;DHT22;11328;53.928;18.522;2023-05-23T06:38:14;23.40;99.00
22321;DHT22;11328;53.928;18.522;2023-05-23T06:40:43;23.50;98.90
22321;DHT22;11328;53.928;18.522;2023-05-23T06:43:10;23.60;99.20
22321;DHT22;11328;53.928;18.522;2023-05-23T06:45:37;23.80;98.70
22321;DHT22;11328;53.928;18.522;2023-05-23T06:48:05;23.80;98.90
22321;DHT22;11328;53.928;18.522;2023-05-23T06:50:32;23.80;98.50
22321;DHT22;11328;53.928;18.522;2023-05-23T06:52:59;23.90;99.10
22321;DHT22;11328;53.928;18.522;2023-05-23T06:55:26;24.00;99.80
22321;DHT22;11328;53.928;18.522;2023-05-23T06:57:53;24.00;99.90
22321;DHT22;11328;53.928;18.522;2023-05-23T07:00:21;24.10;99.00
22321;DHT22;11328;53.928;18.522;2023-05-23T07:02:48;24.20;97.40
22321;DHT22;11328;53.928;18.522;2023-05-23T07:05:15;24.10;96.90
22321;DHT22;11328;53.928;18.522;2023-05-23T07:07:43;24.20;97.20
22321;DHT22;11328;53.928;18.522;2023-05-23T07:10:10;24.20;96.70
22321;DHT22;11328;53.928;18.522;2023-05-23T07:12:37;24.30;97.10
22321;DHT22;11328;53.928;18.522;2023-05-23T07:15:05;24.40;96.80
22321;DHT22;11328;53.928;18.522;2023-05-23T07:17:32;24.40;97.00
22321;DHT22;11328;53.928;18.522;2023-05-23T07:20:00;24.50;97.10
22321;DHT22;11328;53.928;18.522;2023-05-23T07:22:28;24.60;97.30
22321;DHT22;11328;53.928;18.522;2023-05-23T07:24:55;24.60;96.60
22321;DHT22;11328;53.928;18.522;2023-05-23T07:27:22;24.70;96.20
22321;DHT22;11328;53.928;18.522;2023-05-23T07:29:49;24.80;96.00
22321;DHT22;11328;53.928;18.522;2023-05-23T07:32:17;25.00;95.90
22321;DHT22;11328;53.928;18.522;2023-05-23T07:34:44;25.00;95.10
22321;DHT22;11328;53.928;18.522;2023-05-23T07:37:11;25.00;94.80
22321;DHT22;11328;53.928;18.522;2023-05-23T07:39:40;25.20;95.40
22321;DHT22;11328;53.928;18.522;2023-05-23T07:42:07;25.30;94.80
22321;DHT22;11328;53.928;18.522;2023-05-23T07:44:34;25.50;95.40
22321;DHT22;11328;53.928;18.522;2023-05-23T07:47:01;25.60;93.80
22321;DHT22;11328;53.928;18.522;2023-05-23T07:49:29;25.70;94.00
22321;DHT22;11328;53.928;18.522;2023-05-23T07:51:57;25.80;93.90
22321;DHT22;11328;53.928;18.522;2023-05-23T07:54:24;25.90;93.00
22321;DHT22;11328;53.928;18.522;2023-05-23T07:56:52;25.90;92.20
22321;DHT22;11328;53.928;18.522;2023-05-23T07:59:20;26.00;92.70
22321;DHT22;11328;53.928;18.522;2023-05-23T08:01:48;26.00;92.50
22321;DHT22;11328;53.928;18.522;2023-05-23T08:04:18;26.10;91.40
22321;DHT22;11328;53.928;18.522;2023-05-23T08:06:45;26.10;90.50
22321;DHT22;11328;53.928;18.522;2023-05-23T08:09:30;26.10;88.00
22321;DHT22;11328;53.928;18.522;2023-05-23T08:11:57;26.20;89.90
22321;DHT22;11328;53.928;18.522;2023-05-23T08:14:24;26.30;89.10
22321;DHT22;11328;53.928;18.522;2023-05-23T08:17:11;26.30;86.90
22321;DHT22;11328;53.928;18.522;2023-05-23T08:19:39;26.30;88.80
22321;DHT22;11328;53.928;18.522;2023-05-23T08:22:07;26.30;88.40
22321;DHT22;11328;53.928;18.522;2023-05-23T08:24:34;26.30;88.00
22321;DHT22;11328;53.928;18.522;2023-05-23T08:27:01;26.30;89.40
22321;DHT22;11328;53.928;18.522;2023-05-23T08:29:29;26.40;89.70
22321;DHT22;11328;53.928;18.522;2023-05-23T08:31:56;26.50;88.20
22321;DHT22;11328;53.928;18.522;2023-05-23T08:34:23;26.60;87.70
22321;DHT22;11328;53.928;18.522;2023-05-23T08:36:50;26.70;86.10
22321;DHT22;11328;53.928;18.522;2023-05-23T08:39:18;26.70;86.10
22321;DHT22;11328;53.928;18.522;2023-05-23T08:41:45;26.80;86.20
22321;DHT22;11328;53.928;18.522;2023-05-23T08:44:13;26.80;83.10
22321;DHT22;11328;53.928;18.522;2023-05-23T08:46:46;26.80;84.50
22321;DHT22;11328;53.928;18.522;2023-05-23T08:49:17;26.80;86.10
22321;DHT22;11328;53.928;18.522;2023-05-23T08:51:44;26.80;81.50
22321;DHT22;11328;53.928;18.522;2023-05-23T08:54:13;26.80;81.80
22321;DHT22;11328;53.928;18.522;2023-05-23T08:56:42;26.90;82.10
22321;DHT22;11328;53.928;18.522;2023-05-23T08:59:11;27.10;83.00
22321;DHT22;11328;53.928;18.522;2023-05-23T09:01:40;27.20;83.60
22321;DHT22;11328;53.928;18.522;2023-05-23T09:04:09;27.30;82.70
22321;DHT22;11328;53.928;18.522;2023-05-23T09:06:38;27.30;81.30
22321;DHT22;11328;53.928;18.522;2023-05-23T09:09:05;27.40;80.60
22321;DHT22;11328;53.928;18.522;2023-05-23T09:11:32;27.50;81.50
22321;DHT22;11328;53.928;18.522;2023-05-23T09:14:02;27.60;81.10
22321;DHT22;11328;53.928;18.522;2023-05-23T09:16:32;27.70;80.20
22321;DHT22;11328;53.928;18.522;2023-05-23T09:19:10;27.80;78.60
22321;DHT22;11328;53.928;18.522;2023-05-23T09:21:42;27.90;78.10
22321;DHT22;11328;53.928;18.522;2023-05-23T09:24:10;27.90;77.90
22321;DHT22;11328;53.928;18.522;2023-05-23T09:26:38;27.90;80.20
22321;DHT22;11328;53.928;18.522;2023-05-23T09:29:05;28.00;78.10
22321;DHT22;11328;53.928;18.522;2023-05-23T09:31:33;28.20;79.90
22321;DHT22;11328;53.928;18.522;2023-05-23T09:34:01;28.30;78.00
22321;DHT22;11328;53.928;18.522;2023-05-23T09:36:28;28.30;76.00
22321;DHT22;11328;53.928;18.522;2023-05-23T09:39:02;28.40;76.90
22321;DHT22;11328;53.928;18.522;2023-05-23T09:41:34;28.40;73.70
22321;DHT22;11328;53.928;18.522;2023-05-23T09:44:08;28.40;75.60
22321;DHT22;11328;53.928;18.522;2023-05-23T09:46:36;28.20;75.00
22321;DHT22;11328;53.928;18.522;2023-05-23T09:49:18;28.10;75.10
22321;DHT22;11328;53.928;18.522;2023-05-23T09:51:56;28.20;76.80
22321;DHT22;11328;53.928;18.522;2023-05-23T09:54:26;28.40;76.70
22321;DHT22;11328;53.928;18.522;2023-05-23T09:56:54;28.50;72.40
22321;DHT22;11328;53.928;18.522;2023-05-23T09:59:27;28.50;74.50
22321;DHT22;11328;53.928;18.522;2023-05-23T10:01:58;28.60;73.50
22321;DHT22;11328;53.928;18.522;2023-05-23T10:04:30;28.70;71.70
22321;DHT22;11328;53.928;18.522;2023-05-23T10:07:12;28.60;71.40
22321;DHT22;11328;53.928;18.522;2023-05-23T10:09:47;28.50;71.50
22321;DHT22;11328;53.928;18.522;2023-05-23T10:12:47;28.40;72.30
22321;DHT22;11328;53.928;18.522;2023-05-23T10:15:17;28.20;72.60
22321;DHT22;11328;53.928;18.522;2023-05-23T10:18:13;27.90;72.60
22321;DHT22;11328;53.928;18.522;2023-05-23T10:20:48;27.90;73.80
22321;DHT22;11328;53.928;18.522;2023-05-23T10:23:16;27.80;73.40
22321;DHT22;11328;53.928;18.522;2023-05-23T10:25:45;27.70;72.40
22321;DHT22;11328;53.928;18.522;2023-05-23T10:28:14;27.70;72.90
22321;DHT22;11328;53.928;18.522;2023-05-23T10:30:42;27.80;74.80
22321;DHT22;11328;53.928;18.522;2023-05-23T10:33:11;27.80;73.70
22321;DHT22;11328;53.928;18.522;2023-05-23T10:38:45;27.80;73.20
22321;DHT22;11328;53.928;18.522;2023-05-23T10:44:19;27.50;73.00
22321;DHT22;11328;53.928;18.522;2023-05-23T10:46:54;27.50;71.20
22321;DHT22;11328;53.928;18.522;2023-05-23T10:49:51;27.50;73.00
22321;DHT22;11328;53.928;18.522;2023-05-23T10:52:23;27.60;73.70
22321;DHT22;11328;53.928;18.522;2023-05-23T10:54:54;27.60;73.50
22321;DHT22;11328;53.928;18.522;2023-05-23T10:57:25;27.50;71.80
22321;DHT22;11328;53.928;18.522;2023-05-23T10:59:55;27.50;73.20
22321;DHT22;11328;53.928;18.522;2023-05-23T11:02:27;27.40;72.60
22321;DHT22;11328;53.928;18.522;2023-05-23T11:05:17;27.60;74.70
22321;DHT22;11328;53.928;18.522;2023-05-23T11:08:22;27.70;74.20
22321;DHT22;11328;53.928;18.522;2023-05-23T11:11:04;27.70;71.90
22321;DHT22;11328;53.928;18.522;2023-05-23T11:13:57;27.80;72.50
22321;DHT22;11328;53.928;18.522;2023-05-23T11:16:34;28.00;71.00
22321;DHT22;11328;53.928;18.522;2023-05-23T11:21:51;27.90;70.00
22321;DHT22;11328;53.928;18.522;2023-05-23T11:24:54;28.10;72.90
22321;DHT22;11328;53.928;18.522;2023-05-23T11:27:33;28.00;71.10
22321;DHT22;11328;53.928;18.522;2023-05-23T11:32:35;28.10;70.30
22321;DHT22;11328;53.928;18.522;2023-05-23T11:35:09;28.10;72.30
22321;DHT22;11328;53.928;18.522;2023-05-23T11:37:37;28.20;71.00
22321;DHT22;11328;53.928;18.522;2023-05-23T11:40:31;28.30;71.60
22321;DHT22;11328;53.928;18.522;2023-05-23T11:43:02;28.40;70.70
22321;DHT22;11328;53.928;18.522;2023-05-23T11:45:32;28.60;72.00
22321;DHT22;11328;53.928;18.522;2023-05-23T11:48:09;28.70;70.20
22321;DHT22;11328;53.928;18.522;2023-05-23T11:50:44;28.70;71.80
22321;DHT22;11328;53.928;18.522;2023-05-23T11:53:14;28.70;71.60
22321;DHT22;11328;53.928;18.522;2023-05-23T11:55:54;28.90;71.70
22321;DHT22;11328;53.928;18.522;2023-05-23T11:58:37;28.80;71.60
22321;DHT22;11328;53.928;18.522;2023-05-23T12:01:07;29.00;71.10
22321;DHT22;11328;53.928;18.522;2023-05-23T12:03:46;28.90;71.50
22321;DHT22;11328;53.928;18.522;2023-05-23T12:06:17;29.00;69.90
22321;DHT22;11328;53.928;18.522;2023-05-23T12:08:46;28.90;69.00
22321;DHT22;11328;53.928;18.522;2023-05-23T12:11:13;28.90;70.80
22321;DHT22;11328;53.928;18.522;2023-05-23T12:13:41;29.20;68.20
22321;DHT22;11328;53.928;18.522;2023-05-23T12:16:09;29.20;70.00
22321;DHT22;11328;53.928;18.522;2023-05-23T12:18:41;29.20;68.90
22321;DHT22;11328;53.928;18.522;2023-05-23T12:21:09;29.20;71.10
22321;DHT22;11328;53.928;18.522;2023-05-23T12:23:36;29.20;70.90
22321;DHT22;11328;53.928;18.522;2023-05-23T12:26:06;29.30;69.50
22321;DHT22;11328;53.928;18.522;2023-05-23T12:28:41;29.30;69.20
22321;DHT22;11328;53.928;18.522;2023-05-23T12:31:18;29.20;68.00
22321;DHT22;11328;53.928;18.522;2023-05-23T12:33:47;29.20;71.20
22321;DHT22;11328;53.928;18.522;2023-05-23T12:36:22;29.00;70.80
22321;DHT22;11328;53.928;18.522;2023-05-23T12:38:50;29.00;71.40
22321;DHT22;11328;53.928;18.522;2023-05-23T12:41:19;28.90;69.20
22321;DHT22;11328;53.928;18.522;2023-05-23T12:43:52;28.60;69.50
22321;DHT22;11328;53.928;18.522;2023-05-23T12:46:23;28.30;69.60
22321;DHT22;11328;53.928;18.522;2023-05-23T12:48:52;28.10;69.40
22321;DHT22;11328;53.928;18.522;2023-05-23T12:51:20;28.10;68.40
22321;DHT22;11328;53.928;18.522;2023-05-23T12:53:51;27.90;69.30
22321;DHT22;11328;53.928;18.522;2023-05-23T12:56:19;28.00;69.90
22321;DHT22;11328;53.928;18.522;2023-05-23T12:58:47;28.00;69.00
22321;DHT22;11328;53.928;18.522;2023-05-23T13:01:15;28.10;70.70
22321;DHT22;11328;53.928;18.522;2023-05-23T13:03:42;28.10;70.70
22321;DHT22;11328;53.928;18.522;2023-05-23T13:06:09;28.20;70.60
22321;DHT22;11328;53.928;18.522;2023-05-23T13:08:37;28.20;70.20
22321;DHT22;11328;53.928;18.522;2023-05-23T13:11:04;28.20;70.90
22321;DHT22;11328;53.928;18.522;2023-05-23T13:13:31;28.20;71.70
22321;DHT22;11328;53.928;18.522;2023-05-23T13:15:59;28.10;70.00
22321;DHT22;11328;53.928;18.522;2023-05-23T13:18:29;28.10;69.20
22321;DHT22;11328;53.928;18.522;2023-05-23T13:20:57;28.10;69.10
22321;DHT22;11328;53.928;18.522;2023-05-23T13:23:24;28.10;69.10
22321;DHT22;11328;53.928;18.522;2023-05-23T13:25:52;28.20;69.10
22321;DHT22;11328;53.928;18.522;2023-05-23T13:28:19;28.10;70.40
22321;DHT22;11328;53.928;18.522;2023-05-23T13:30:46;28.10;70.20
22321;DHT22;11328;53.928;18.522;2023-05-23T13:33:14;28.20;70.40
22321;DHT22;11328;53.928;18.522;2023-05-23T13:35:42;28.20;70.90
22321;DHT22;11328;53.928;18.522;2023-05-23T13:38:10;28.20;70.80
22321;DHT22;11328;53.928;18.522;2023-05-23T13:40:37;28.20;70.60
22321;DHT22;11328;53.928;18.522;2023-05-23T13:43:04;28.30;71.50
22321;DHT22;11328;53.928;18.522;2023-05-23T13:45:31;28.30;70.10
22321;DHT22;11328;53.928;18.522;2023-05-23T13:47:59;28.40;70.70
22321;DHT22;11328;53.928;18.522;2023-05-23T13:50:26;28.50;69.50
22321;DHT22;11328;53.928;18.522;2023-05-23T13:52:56;28.40;68.70
22321;DHT22;11328;53.928;18.522;2023-05-23T13:55:24;28.50;70.60
22321;DHT22;11328;53.928;18.522;2023-05-23T13:57:51;28.40;69.00
22321;DHT22;11328;53.928;18.522;2023-05-23T14:00:18;28.40;70.20
22321;DHT22;11328;53.928;18.522;2023-05-23T14:02:45;28.40;69.50
22321;DHT22;11328;53.928;18.522;2023-05-23T14:05:13;28.30;70.20
22321;DHT22;11328;53.928;18.522;2023-05-23T14:07:41;28.30;67.70
22321;DHT22;11328;53.928;18.522;2023-05-23T14:10:13;28.10;69.10
22321;DHT22;11328;53.928;18.522;2023-05-23T14:12:41;28.10;70.30
22321;DHT22;11328;53.928;18.522;2023-05-23T14:15:08;28.10;70.80
22321;DHT22;11328;53.928;18.522;2023-05-23T14:17:36;28.00;69.70
22321;DHT22;11328;53.928;18.522;2023-05-23T14:20:04;28.00;68.60
22321;DHT22;11328;53.928;18.522;2023-05-23T14:22:31;28.00;69.20
22321;DHT22;11328;53.928;18.522;2023-05-23T14:24:59;27.90;68.90
22321;DHT22;11328;53.928;18.522;2023-05-23T14:27:26;27.80;69.60
22321;DHT22;11328;53.928;18.522;2023-05-23T14:29:53;27.80;70.50
22321;DHT22;11328;53.928;18.522;2023-05-23T14:32:21;27.70;71.10
22321;DHT22;11328;53.928;18.522;2023-05-23T14:34:48;27.60;70.20
22321;DHT22;11328;53.928;18.522;2023-05-23T14:37:15;27.60;71.00
22321;DHT22;11328;53.928;18.522;2023-05-23T14:39:43;27.60;71.90
22321;DHT22;11328;53.928;18.522;2023-05-23T14:42:10;27.60;71.00
22321;DHT22;11328;53.928;18.522;2023-05-23T14:44:37;27.60;72.30
22321;DHT22;11328;53.928;18.522;2023-05-23T14:47:07;27.50;72.60
22321;DHT22;11328;53.928;18.522;2023-05-23T14:49:34;27.50;72.70
22321;DHT22;11328;53.928;18.522;2023-05-23T14:52:02;27.50;72.50
22321;DHT22;11328;53.928;18.522;2023-05-23T14:54:29;27.60;72.60
22321;DHT22;11328;53.928;18.522;2023-05-23T14:56:57;27.60;71.70
22321;DHT22;11328;53.928;18.522;2023-05-23T14:59:24;27.60;74.40
22321;DHT22;11328;53.928;18.522;2023-05-23T15:01:51;27.50;72.90
22321;DHT22;11328;53.928;18.522;2023-05-23T15:04:19;27.50;74.30
22321;DHT22;11328;53.928;18.522;2023-05-23T15:06:46;27.50;73.70
22321;DHT22;11328;53.928;18.522;2023-05-23T15:09:14;27.40;73.70
22321;DHT22;11328;53.928;18.522;2023-05-23T15:11:43;27.30;76.40
22321;DHT22;11328;53.928;18.522;2023-05-23T15:14:12;27.20;75.90
22321;DHT22;11328;53.928;18.522;2023-05-23T15:16:39;27.20;76.90
22321;DHT22;11328;53.928;18.522;2023-05-23T15:19:10;27.20;76.70
22321;DHT22;11328;53.928;18.522;2023-05-23T15:21:37;27.20;77.80
22321;DHT22;11328;53.928;18.522;2023-05-23T15:24:16;27.10;78.20
22321;DHT22;11328;53.928;18.522;2023-05-23T15:26:43;27.10;76.70
22321;DHT22;11328;53.928;18.522;2023-05-23T15:29:11;27.10;76.80
22321;DHT22;11328;53.928;18.522;2023-05-23T15:31:40;27.10;77.20
22321;DHT22;11328;53.928;18.522;2023-05-23T15:34:07;27.10;78.80
22321;DHT22;11328;53.928;18.522;2023-05-23T15:36:34;27.10;77.20
22321;DHT22;11328;53.928;18.522;2023-05-23T15:39:03;27.00;77.60
22321;DHT22;11328;53.928;18.522;2023-05-23T15:41:31;27.00;77.10
22321;DHT22;11328;53.928;18.522;2023-05-23T15:43:59;26.90;78.60
22321;DHT22;11328;53.928;18.522;2023-05-23T15:46:26;26.90;78.60